Time;durP1;ratioP1;P1;durP2;ratioP2;P2;SDS_P1;SDS_P2;PMS_P1;PMS_P2;Temp;Humidity;BMP_temperature;BMP_pressure;BME280_temperature;BME280_humidity;BME280_pressure;Samples;Min_cycle;Max_cycle;Signal;HPM_P1;HPM_P2
2022/10/12 00:00:36;;;;;;;10.47;4.13;;;9.70;99.90;;;;;;5077449;28;20459;-40
2022/10/12 00:03:06;;;;;;;8.87;3.73;;;9.60;99.90;;;;;;5077792;28;20434;-37
2022/10/12 00:05:35;;;;;;;6.73;4.27;;;9.60;99.90;;;;;;5076878;28;20440;-39
2022/10/12 00:08:05;;;;;;;6.17;4.23;;;9.60;99.90;;;;;;5080528;28;20462;-37
2022/10/12 00:10:33;;;;;;;7.43;3.77;;;9.60;99.90;;;;;;5081607;28;20443;-43
2022/10/12 00:13:00;;;;;;;7.40;4.40;;;9.60;99.90;;;;;;5081371;28;20514;-36
2022/10/12 00:15:27;;;;;;;6.27;3.90;;;9.70;99.90;;;;;;5081014;28;20509;-37
2022/10/12 00:17:58;;;;;;;5.73;3.10;;;9.70;99.90;;;;;;5081061;28;20522;-43
2022/10/12 00:20:24;;;;;;;9.87;4.80;;;9.70;99.90;;;;;;5081092;28;20447;-38
2022/10/12 00:22:51;;;;;;;13.73;4.33;;;9.60;99.90;;;;;;5080839;28;20430;-36
2022/10/12 00:25:20;;;;;;;17.87;5.40;;;9.60;99.90;;;;;;5080925;28;20491;-41
2022/10/12 00:27:48;;;;;;;4.53;3.87;;;9.60;99.90;;;;;;5080871;28;20440;-36
2022/10/12 00:30:17;;;;;;;6.90;3.83;;;9.60;99.90;;;;;;5080810;28;20491;-38
2022/10/12 00:32:49;;;;;;;6.73;4.10;;;9.60;99.90;;;;;;5080847;28;20546;-37
2022/10/12 00:35:16;;;;;;;11.80;3.97;;;9.50;99.90;;;;;;5080859;28;20501;-37
2022/10/12 00:37:42;;;;;;;5.87;3.67;;;9.50;99.90;;;;;;5080699;28;20443;-40
2022/10/12 00:40:10;;;;;;;14.93;5.07;;;9.50;99.90;;;;;;5080555;28;20465;-37
2022/10/12 00:42:37;;;;;;;11.77;4.80;;;9.50;99.90;;;;;;5080545;28;20470;-38
2022/10/12 00:45:07;;;;;;;14.17;5.30;;;9.50;99.90;;;;;;5079926;28;20449;-39
2022/10/12 00:47:36;;;;;;;5.33;3.47;;;9.40;99.90;;;;;;5079726;28;20442;-42
2022/10/12 00:50:09;;;;;;;12.13;4.57;;;9.40;99.90;;;;;;5080430;28;20770;-38
2022/10/12 00:52:42;;;;;;;12.43;4.50;;;9.40;99.90;;;;;;5079980;28;20428;-38
2022/10/12 00:55:18;;;;;;;5.13;3.30;;;9.30;99.90;;;;;;5080212;28;20475;-39
2022/10/12 00:57:46;;;;;;;6.90;3.60;;;9.30;99.90;;;;;;5079765;28;20514;-37
2022/10/12 01:00:15;;;;;;;8.07;3.27;;;9.30;99.90;;;;;;5079637;28;20448;-38
2022/10/12 01:02:46;;;;;;;9.50;3.90;;;9.30;99.90;;;;;;5079743;28;20534;-39
2022/10/12 01:05:13;;;;;;;6.17;3.77;;;9.30;99.90;;;;;;5079862;28;20471;-39
2022/10/12 01:07:40;;;;;;;9.03;3.53;;;9.30;99.90;;;;;;5079725;28;20491;-36
2022/10/12 01:10:11;;;;;;;8.20;3.97;;;9.20;99.90;;;;;;5079517;28;20428;-37
2022/10/12 01:12:40;;;;;;;6.07;3.30;;;9.20;99.90;;;;;;5079436;28;20436;-38
2022/10/12 01:15:08;;;;;;;6.50;3.53;;;9.20;99.90;;;;;;5079327;28;20473;-39
2022/10/12 01:17:44;;;;;;;4.13;3.73;;;9.20;99.90;;;;;;5079210;28;20467;-38
2022/10/12 01:20:42;;;;;;;4.73;3.50;;;9.20;99.90;;;;;;5078572;28;20463;-39
2022/10/12 01:23:54;;;;;;;5.90;3.33;;;9.20;99.90;;;;;;5079492;28;20424;-40
2022/10/12 01:27:00;;;;;;;4.87;3.43;;;9.10;99.90;;;;;;5079331;28;20428;-37
2022/10/12 01:29:49;;;;;;;6.73;3.57;;;9.10;99.90;;;;;;5079134;28;20470;-39
2022/10/12 01:32:21;;;;;;;11.30;3.10;;;9.10;99.90;;;;;;5078047;28;20516;-39
2022/10/12 01:34:53;;;;;;;6.77;3.73;;;9.10;99.90;;;;;;5079135;28;20514;-42
2022/10/12 01:37:31;;;;;;;7.10;3.50;;;9.20;99.90;;;;;;5078961;28;20445;-40
2022/10/12 01:40:04;;;;;;;14.00;3.60;;;9.10;99.90;;;;;;5079430;28;20491;-42
2022/10/12 01:42:34;;;;;;;9.30;3.97;;;9.10;99.90;;;;;;5078973;28;20473;-39
2022/10/12 01:45:05;;;;;;;6.00;3.60;;;9.10;99.90;;;;;;5079582;28;20447;-38
2022/10/12 01:47:38;;;;;;;4.97;3.97;;;9.20;99.90;;;;;;5079095;28;20507;-42
2022/10/12 01:50:11;;;;;;;6.40;3.70;;;9.10;99.90;;;;;;5079080;28;20408;-41
2022/10/12 01:52:45;;;;;;;7.70;6.33;;;9.10;99.90;;;;;;5079083;28;20519;-37
2022/10/12 01:55:23;;;;;;;6.63;4.03;;;9.10;99.90;;;;;;5079024;28;20476;-36
2022/10/12 01:58:18;;;;;;;9.70;4.20;;;9.00;99.90;;;;;;5078963;28;20478;-39
2022/10/12 02:00:58;;;;;;;6.40;5.30;;;9.00;99.90;;;;;;5070449;28;20527;-38
2022/10/12 02:03:35;;;;;;;5.73;3.90;;;9.00;99.90;;;;;;5078812;28;20447;-38
2022/10/12 02:06:05;;;;;;;7.47;4.73;;;8.90;99.90;;;;;;5078722;28;20431;-39
2022/10/12 02:08:37;;;;;;;5.83;4.07;;;8.90;99.90;;;;;;5078553;28;20448;-38
2022/10/12 02:11:10;;;;;;;9.67;4.70;;;8.90;99.90;;;;;;5078551;28;20491;-41
2022/10/12 02:13:41;;;;;;;9.53;3.90;;;8.90;99.90;;;;;;5078810;28;20439;-37
2022/10/12 02:16:11;;;;;;;15.13;4.47;;;8.80;99.90;;;;;;5078345;28;20495;-40
2022/10/12 02:18:44;;;;;;;4.63;3.70;;;8.80;99.90;;;;;;5078518;28;20518;-36
2022/10/12 02:21:13;;;;;;;7.33;4.60;;;8.80;99.90;;;;;;5078268;28;20479;-39
2022/10/12 02:23:43;;;;;;;6.43;4.03;;;8.80;99.90;;;;;;5078286;28;20431;-37
2022/10/12 02:26:12;;;;;;;5.40;3.70;;;8.80;99.90;;;;;;5078235;28;20475;-38
2022/10/12 02:28:39;;;;;;;7.20;3.80;;;8.80;99.90;;;;;;5078307;28;20463;-39
2022/10/12 02:31:14;;;;;;;8.40;4.53;;;8.80;99.90;;;;;;5077878;28;20534;-40
2022/10/12 02:33:50;;;;;;;6.60;3.30;;;8.80;99.90;;;;;;5078414;28;20431;-40
2022/10/12 02:36:23;;;;;;;11.80;4.43;;;8.80;99.90;;;;;;5078491;28;20462;-36
2022/10/12 02:38:56;;;;;;;4.20;3.80;;;8.80;99.90;;;;;;5078399;28;20418;-36
2022/10/12 02:41:28;;;;;;;4.93;3.37;;;8.80;99.90;;;;;;5078296;28;20415;-39
2022/10/12 02:43:58;;;;;;;7.10;4.20;;;8.70;99.90;;;;;;5078038;28;20478;-38
2022/10/12 02:46:28;;;;;;;6.57;4.17;;;8.70;99.90;;;;;;5078037;28;20470;-41
2022/10/12 02:48:58;;;;;;;5.00;3.00;;;8.70;99.90;;;;;;5078268;28;20523;-38
2022/10/12 02:51:27;;;;;;;11.33;4.70;;;8.70;99.90;;;;;;5077928;28;20423;-36
2022/10/12 02:53:55;;;;;;;7.80;3.30;;;8.70;99.90;;;;;;5077893;28;20451;-38
2022/10/12 02:56:23;;;;;;;6.53;3.67;;;8.70;99.90;;;;;;5077817;28;20491;-36
2022/10/12 02:58:50;;;;;;;7.73;3.47;;;8.70;99.90;;;;;;5077953;28;20454;-37
2022/10/12 03:01:17;;;;;;;8.30;3.27;;;8.60;99.90;;;;;;5078089;28;20457;-36
2022/10/12 03:03:44;;;;;;;10.27;3.63;;;8.60;99.90;;;;;;5078026;28;20458;-36
2022/10/12 03:06:13;;;;;;;6.03;4.53;;;8.60;99.90;;;;;;5077786;28;20523;-40
2022/10/12 03:08:39;;;;;;;4.63;2.90;;;8.60;99.90;;;;;;5078060;28;20423;-40
2022/10/12 03:11:08;;;;;;;7.20;3.40;;;8.80;99.90;;;;;;5077811;28;20463;-34
2022/10/12 03:13:56;;;;;;;5.47;3.30;;;8.70;99.90;;;;;;5077946;28;20424;-38
2022/10/12 03:16:24;;;;;;;5.57;4.10;;;8.60;99.90;;;;;;5077289;28;20490;-39
2022/10/12 03:18:51;;;;;;;4.03;3.40;;;8.60;99.90;;;;;;5077805;28;20462;-36
2022/10/12 03:21:20;;;;;;;5.57;4.47;;;8.60;99.90;;;;;;5077596;28;20472;-38
2022/10/12 03:23:46;;;;;;;12.10;3.70;;;8.60;99.90;;;;;;5077540;28;20473;-36
2022/10/12 03:26:13;;;;;;;4.40;3.60;;;8.50;99.90;;;;;;5077404;28;20452;-38
2022/10/12 03:28:40;;;;;;;5.20;3.60;;;8.60;99.90;;;;;;5077310;28;20470;-38
2022/10/12 03:31:09;;;;;;;5.43;3.17;;;8.50;99.90;;;;;;5076740;28;20486;-39
2022/10/12 03:33:38;;;;;;;7.47;3.50;;;8.60;99.90;;;;;;5077391;28;20475;-36
2022/10/12 03:36:06;;;;;;;5.67;4.13;;;8.50;99.90;;;;;;5077460;28;20709;-37
2022/10/12 03:38:34;;;;;;;8.83;4.00;;;8.50;99.90;;;;;;5077582;28;20455;-34
2022/10/12 03:41:01;;;;;;;4.33;3.50;;;8.50;99.90;;;;;;5077474;28;20474;-39
2022/10/12 07:49:48;;;;;;;17.33;12.33;;;10.60;99.90;;;;;;5104414;22;20499;-66
2022/10/12 07:52:20;;;;;;;39.83;22.90;;;10.80;99.90;;;;;;5055888;28;20488;-64
2022/10/12 07:54:47;;;;;;;27.97;15.63;;;10.70;99.90;;;;;;5055803;28;20526;-65
2022/10/12 07:57:22;;;;;;;15.03;8.13;;;11.00;99.90;;;;;;5056050;28;20462;-64
2022/10/12 07:59:48;;;;;;;10.53;6.33;;;11.10;99.90;;;;;;5056082;28;20578;-64
2022/10/12 08:02:21;;;;;;;16.03;6.83;;;11.20;99.90;;;;;;5055911;28;20463;-64
2022/10/12 08:04:49;;;;;;;7.80;5.00;;;11.40;99.90;;;;;;5055846;28;20499;-65
2022/10/12 08:07:16;;;;;;;12.60;4.40;;;11.50;99.90;;;;;;5055602;28;20487;-63
2022/10/12 08:09:43;;;;;;;7.87;4.73;;;11.60;99.90;;;;;;5055620;28;20463;-63
2022/10/12 08:12:10;;;;;;;10.73;5.43;;;11.80;99.90;;;;;;5055631;28;20448;-62
2022/10/12 08:14:38;;;;;;;5.60;4.33;;;11.90;99.90;;;;;;5056054;28;20417;-64
2022/10/12 08:17:05;;;;;;;6.43;5.03;;;12.00;99.90;;;;;;5055590;28;20531;-61
2022/10/12 08:19:32;;;;;;;11.33;6.20;;;12.10;99.90;;;;;;5055578;28;20420;-63
2022/10/12 08:22:00;;;;;;;11.07;5.70;;;12.20;99.90;;;;;;5055635;28;20432;-63
2022/10/12 08:24:27;;;;;;;10.27;5.37;;;12.30;99.90;;;;;;5055137;28;20500;-61
2022/10/12 08:26:53;;;;;;;11.03;6.80;;;12.40;99.90;;;;;;5055112;28;20432;-63
2022/10/12 08:29:20;;;;;;;6.47;4.73;;;12.50;99.90;;;;;;5058559;28;20436;-63
2022/10/12 08:31:49;;;;;;;9.37;4.90;;;12.60;99.90;;;;;;5058784;28;20482;-64
2022/10/12 08:34:19;;;;;;;9.50;5.20;;;12.70;99.90;;;;;;5058966;28;20463;-64
2022/10/12 08:36:46;;;;;;;7.20;3.73;;;12.80;99.90;;;;;;5058817;28;20490;-61
2022/10/12 08:39:16;;;;;;;12.00;3.80;;;12.90;99.90;;;;;;5058265;28;20447;-65
2022/10/12 08:41:52;;;;;;;15.20;7.80;;;13.00;99.90;;;;;;5058644;28;20449;-62
2022/10/12 08:44:38;;;;;;;9.90;6.30;;;13.10;99.90;;;;;;5058163;28;20480;-62
2022/10/12 08:47:11;;;;;;;6.93;5.00;;;13.30;99.90;;;;;;5058752;28;20472;-63
2022/10/12 08:49:39;;;;;;;14.63;4.10;;;13.40;99.90;;;;;;5058628;28;20484;-63
2022/10/12 08:52:22;;;;;;;9.03;5.27;;;13.60;99.90;;;;;;5058365;28;20456;-62
2022/10/12 08:54:50;;;;;;;5.63;3.97;;;13.70;99.90;;;;;;5058431;28;20482;-66
2022/10/12 08:57:19;;;;;;;8.90;4.47;;;13.80;99.90;;;;;;5057825;28;20492;-64
2022/10/12 08:59:47;;;;;;;8.60;4.23;;;14.00;99.90;;;;;;5058298;28;20566;-62
2022/10/12 09:02:32;;;;;;;6.83;4.20;;;14.00;99.90;;;;;;5058564;28;20452;-63
2022/10/12 09:05:02;;;;;;;5.97;3.73;;;14.20;99.90;;;;;;5058167;28;20511;-65
2022/10/12 09:07:31;;;;;;;8.63;4.00;;;14.40;99.90;;;;;;5057652;28;20440;-64
2022/10/12 09:10:17;;;;;;;4.50;3.23;;;14.50;99.90;;;;;;5058001;28;20495;-65
2022/10/12 09:12:59;;;;;;;11.40;3.47;;;14.60;99.90;;;;;;5057807;28;20444;-63
2022/10/12 09:15:34;;;;;;;13.93;3.57;;;14.70;99.90;;;;;;5057956;28;20564;-61
2022/10/12 09:18:03;;;;;;;7.57;3.40;;;14.70;99.90;;;;;;5058508;28;20444;-63
2022/10/12 09:20:34;;;;;;;8.30;3.60;;;14.90;99.90;;;;;;5057752;28;20468;-65
2022/10/12 09:23:06;;;;;;;12.40;4.13;;;15.60;99.90;;;;;;5057276;28;20429;-64
2022/10/12 09:25:34;;;;;;;4.30;3.30;;;16.50;99.90;;;;;;5057697;28;20460;-64
2022/10/12 09:28:15;;;;;;;7.33;2.53;;;17.10;99.90;;;;;;5059183;28;20515;-63
2022/10/12 09:30:53;;;;;;;5.83;2.47;;;17.40;99.90;;;;;;5059778;28;20530;-64
2022/10/12 09:33:33;;;;;;;4.60;2.90;;;17.60;99.90;;;;;;5059520;28;20428;-61
2022/10/12 09:36:00;;;;;;;8.03;2.70;;;18.40;99.90;;;;;;5058858;28;20542;-63
2022/10/12 09:38:28;;;;;;;6.20;2.90;;;19.70;99.90;;;;;;5057706;28;20451;-64
2022/10/12 09:40:56;;;;;;;8.93;2.97;;;20.90;99.60;;;;;;5055786;28;20524;-62
2022/10/12 09:43:24;;;;;;;7.70;2.90;;;22.00;94.00;;;;;;5056574;28;20431;-61
2022/10/12 09:45:53;;;;;;;7.17;3.57;;;23.10;90.10;;;;;;5055873;28;20464;-62
2022/10/12 09:48:23;;;;;;;3.90;2.23;;;24.00;85.00;;;;;;5056597;28;20424;-61
2022/10/12 09:50:53;;;;;;;9.23;2.63;;;24.80;75.10;;;;;;5056649;28;20427;-60
2022/10/12 09:53:31;;;;;;;10.07;2.37;;;25.00;71.80;;;;;;5056727;28;20439;-63
2022/10/12 09:56:07;;;;;;;19.77;3.53;;;25.10;67.20;;;;;;5056900;28;20449;-58
2022/10/12 09:58:42;;;;;;;3.13;1.87;;;25.20;64.50;;;;;;5056765;28;20420;-61
2022/10/12 10:01:22;;;;;;;2.93;2.10;;;25.30;62.60;;;;;;5056359;28;20498;-59
2022/10/12 10:03:51;;;;;;;5.10;1.97;;;25.30;62.40;;;;;;5056639;28;20857;-61
2022/10/12 10:06:24;;;;;;;5.60;2.00;;;25.40;60.80;;;;;;5056177;28;20432;-63
2022/10/12 10:08:51;;;;;;;3.30;1.70;;;25.50;59.50;;;;;;5056076;28;20436;-56
2022/10/12 10:11:23;;;;;;;5.60;2.23;;;25.80;59.10;;;;;;5057825;28;20460;-58
2022/10/12 10:13:54;;;;;;;3.30;1.30;;;25.70;58.60;;;;;;5058746;28;20433;-60
2022/10/12 10:16:29;;;;;;;6.43;1.67;;;25.80;57.60;;;;;;5058248;28;20475;-60
2022/10/12 10:19:01;;;;;;;2.63;1.70;;;26.00;56.60;;;;;;5058128;28;20431;-54
2022/10/12 10:21:31;;;;;;;4.07;1.77;;;25.80;57.10;;;;;;5057724;28;20452;-58
2022/10/12 10:24:01;;;;;;;3.30;1.70;;;25.60;57.50;;;;;;5057636;28;20504;-60
2022/10/12 10:26:49;;;;;;;5.90;1.77;;;25.50;57.40;;;;;;5057021;28;20485;-62
2022/10/12 10:29:31;;;;;;;4.43;2.00;;;25.50;56.90;;;;;;5056900;28;20441;-62
2022/10/12 10:32:11;;;;;;;7.93;2.33;;;25.50;56.70;;;;;;5057689;28;20448;-61
2022/10/12 10:34:38;;;;;;;1.77;1.50;;;25.30;57.50;;;;;;5056833;28;20424;-61
2022/10/12 10:37:06;;;;;;;4.53;2.27;;;25.20;57.20;;;;;;5056134;28;20532;-61
2022/10/12 10:39:45;;;;;;;5.90;2.00;;;25.00;57.70;;;;;;5055711;28;20456;-63
2022/10/12 10:42:19;;;;;;;4.47;1.77;;;24.90;58.00;;;;;;5056464;28;20412;-63
2022/10/12 10:44:52;;;;;;;3.93;1.70;;;24.50;57.40;;;;;;5054097;28;20488;-62
2022/10/12 10:47:19;;;;;;;3.40;1.60;;;24.60;57.60;;;;;;5055702;28;20417;-61
2022/10/12 10:49:50;;;;;;;6.57;2.90;;;24.30;57.90;;;;;;5056442;28;20527;-58
2022/10/12 10:52:23;;;;;;;7.23;2.60;;;24.00;59.20;;;;;;5056516;28;20461;-64
2022/10/12 10:55:05;;;;;;;4.70;2.50;;;23.60;59.00;;;;;;5056236;28;20820;-62
2022/10/12 10:57:34;;;;;;;4.50;2.13;;;23.30;60.30;;;;;;5036593;28;20477;-62
2022/10/12 11:00:04;;;;;;;7.77;2.50;;;22.80;60.90;;;;;;5050207;28;20448;-63
2022/10/12 11:02:38;;;;;;;4.80;2.07;;;22.40;60.90;;;;;;5055936;28;20445;-62
2022/10/12 11:05:11;;;;;;;3.50;2.00;;;22.10;61.90;;;;;;5056308;28;20417;-63
2022/10/12 11:07:44;;;;;;;4.80;2.40;;;21.70;62.50;;;;;;5055748;28;20432;-62
2022/10/12 11:10:22;;;;;;;11.73;2.30;;;21.30;64.10;;;;;;5056395;28;20606;-64
2022/10/12 11:12:55;;;;;;;2.03;1.70;;;20.90;64.70;;;;;;5055601;28;20435;-63
2022/10/12 11:15:28;;;;;;;5.60;1.60;;;20.50;65.10;;;;;;5055767;28;20443;-62
2022/10/12 11:18:02;;;;;;;3.77;1.47;;;20.20;67.40;;;;;;5055805;28;20549;-63
2022/10/12 11:20:37;;;;;;;2.07;1.40;;;19.90;67.10;;;;;;5056008;28;20423;-62
2022/10/12 11:23:10;;;;;;;5.50;1.60;;;19.80;68.50;;;;;;5054836;28;20451;-58
2022/10/12 11:25:49;;;;;;;10.67;2.40;;;19.60;70.10;;;;;;5061818;28;20428;-62
2022/10/12 11:28:17;;;;;;;4.17;2.10;;;19.50;72.10;;;;;;5058425;28;20460;-63
2022/10/12 11:30:50;;;;;;;4.70;2.17;;;19.30;73.90;;;;;;5075180;28;20443;-61
2022/10/12 11:33:21;;;;;;;1.83;1.30;;;19.30;73.40;;;;;;5075324;28;20532;-64
2022/10/12 11:35:51;;;;;;;2.70;1.47;;;19.30;72.10;;;;;;5075700;28;20455;-63
2022/10/12 11:38:22;;;;;;;6.00;2.57;;;19.10;71.90;;;;;;5075300;28;20527;-62
2022/10/12 11:40:57;;;;;;;4.80;2.03;;;19.00;73.10;;;;;;5072988;28;20500;-65
2022/10/12 11:43:29;;;;;;;6.87;1.70;;;19.00;73.80;;;;;;5073013;28;20467;-62
2022/10/12 11:46:06;;;;;;;4.60;1.50;;;18.80;72.90;;;;;;5062122;28;20448;-64
2022/10/12 11:48:39;;;;;;;7.10;1.67;;;19.20;74.10;;;;;;5055777;28;20460;-64
2022/10/12 11:51:15;;;;;;;4.40;1.50;;;18.30;72.80;;;;;;5056721;28;20440;-64
2022/10/12 11:53:51;;;;;;;3.17;1.90;;;18.10;73.50;;;;;;5056493;28;20507;-66
2022/10/12 11:56:23;;;;;;;8.40;1.93;;;17.90;74.20;;;;;;5056400;28;20543;-65
2022/10/12 11:58:57;;;;;;;8.50;1.70;;;17.90;74.40;;;;;;5056702;28;20506;-64
2022/10/12 12:01:40;;;;;;;7.40;1.83;;;17.80;74.00;;;;;;5056356;28;20469;-64
2022/10/12 12:04:17;;;;;;;4.73;1.57;;;17.80;74.90;;;;;;5059276;28;20968;-66
2022/10/12 12:06:56;;;;;;;5.10;1.43;;;17.80;75.50;;;;;;5060307;28;20439;-65
2022/10/12 12:09:48;;;;;;;6.07;1.43;;;17.80;75.20;;;;;;5060293;28;20424;-65
2022/10/12 12:12:23;;;;;;;1.77;1.30;;;17.80;76.00;;;;;;5045889;28;20459;-63
2022/10/12 12:15:20;;;;;;;4.90;1.70;;;17.70;76.50;;;;;;5059711;28;20451;-65
2022/10/12 12:18:11;;;;;;;1.70;1.47;;;17.50;78.70;;;;;;5059103;28;20470;-64
2022/10/12 12:21:01;;;;;;;5.43;1.40;;;17.50;78.00;;;;;;5060623;28;20454;-60
2022/10/12 12:23:29;;;;;;;4.83;1.37;;;17.50;77.00;;;;;;5060548;28;20446;-61
2022/10/12 12:26:06;;;;;;;3.30;1.33;;;17.40;76.60;;;;;;5059941;28;20464;-63
2022/10/12 12:28:35;;;;;;;6.07;1.57;;;17.40;77.10;;;;;;5060443;28;20782;-61
2022/10/12 12:31:15;;;;;;;1.83;1.10;;;17.50;77.20;;;;;;5059054;28;20444;-60
2022/10/12 12:33:45;;;;;;;3.53;1.23;;;17.50;78.40;;;;;;5058838;28;20416;-61
2022/10/12 12:36:14;;;;;;;4.73;1.30;;;17.50;78.40;;;;;;5058887;28;20448;-64
2022/10/12 12:38:49;;;;;;;6.70;1.37;;;17.70;78.50;;;;;;5059831;28;20444;-62
2022/10/12 12:41:17;;;;;;;1.90;1.10;;;17.80;77.20;;;;;;5059694;28;20435;-62
2022/10/12 12:44:04;;;;;;;3.77;1.50;;;17.90;77.60;;;;;;5059228;28;20479;-62
2022/10/12 12:47:05;;;;;;;3.30;1.50;;;17.90;76.10;;;;;;5059294;28;20450;-60
2022/10/12 12:49:42;;;;;;;17.87;6.70;;;18.00;76.30;;;;;;5059129;28;20479;-61
2022/10/12 12:52:20;;;;;;;6.50;1.70;;;18.10;76.40;;;;;;5059208;28;20451;-61
2022/10/12 12:55:39;;;;;;;4.87;1.40;;;18.20;80.30;;;;;;5061767;28;20507;-60
2022/10/12 12:58:36;;;;;;;8.03;2.10;;;18.30;77.00;;;;;;4979125;28;20520;-60
2022/10/12 13:01:22;;;;;;;1.73;1.30;;;18.50;80.60;;;;;;4986651;28;20531;-61
2022/10/12 13:04:09;;;;;;;3.30;1.60;;;18.50;76.50;;;;;;5046026;28;20440;-63
2022/10/12 13:07:18;;;;;;;3.00;1.60;;;18.40;77.30;;;;;;5059137;28;20479;-62
2022/10/12 13:10:12;;;;;;;4.00;1.33;;;18.40;76.30;;;;;;5059278;28;20440;-60
2022/10/12 13:12:57;;;;;;;12.00;4.03;;;18.40;76.50;;;;;;5059187;28;20468;-62
2022/10/12 13:15:41;;;;;;;43.13;19.90;;;18.50;76.20;;;;;;5057624;28;20417;-62
2022/10/12 13:18:39;;;;;;;7.73;2.90;;;18.50;75.80;;;;;;5058009;28;20559;-60
2022/10/12 13:21:16;;;;;;;5.77;1.87;;;18.50;75.30;;;;;;5056395;28;20480;-64
2022/10/12 13:23:48;;;;;;;10.83;1.93;;;18.30;74.90;;;;;;5059311;28;20679;-63
2022/10/12 13:26:21;;;;;;;3.70;1.33;;;18.30;76.40;;;;;;5059151;28;20427;-61
2022/10/12 13:28:59;;;;;;;11.03;1.67;;;18.20;75.10;;;;;;5058340;28;20536;-63
2022/10/12 13:31:32;;;;;;;3.00;1.30;;;18.10;75.40;;;;;;5059080;28;20432;-58
2022/10/12 13:34:07;;;;;;;2.67;1.40;;;18.10;75.70;;;;;;5058580;28;20416;-61
2022/10/12 13:36:44;;;;;;;6.23;1.87;;;18.10;75.10;;;;;;5058335;28;20471;-60
2022/10/12 13:39:19;;;;;;;4.60;1.40;;;18.10;75.50;;;;;;5058404;28;20972;-59
2022/10/12 13:41:53;;;;;;;3.63;1.37;;;18.10;75.20;;;;;;5058928;28;20535;-63
2022/10/12 13:44:23;;;;;;;5.57;1.80;;;18.00;75.50;;;;;;5058636;28;20461;-60
2022/10/12 13:47:22;;;;;;;3.00;1.07;;;18.00;76.20;;;;;;5058318;28;20463;-59
2022/10/12 13:49:49;;;;;;;8.33;3.07;;;17.90;76.70;;;;;;5058045;28;20462;-62
2022/10/12 13:52:25;;;;;;;3.87;1.83;;;17.90;77.40;;;;;;5058196;28;20528;-59
2022/10/12 13:54:59;;;;;;;3.60;1.60;;;17.90;77.10;;;;;;5058837;28;20462;-58
2022/10/12 13:57:40;;;;;;;5.77;1.53;;;17.80;78.10;;;;;;5057977;28;20451;-62
2022/10/12 14:00:18;;;;;;;3.10;1.97;;;17.70;79.00;;;;;;5057324;28;20470;-63
2022/10/12 14:03:02;;;;;;;2.57;1.40;;;17.70;79.10;;;;;;5057697;28;20516;-60
2022/10/12 14:05:33;;;;;;;5.63;1.50;;;17.60;78.20;;;;;;5057384;28;20415;-58
2022/10/12 14:08:06;;;;;;;1.27;0.97;;;17.50;77.80;;;;;;5056942;28;20456;-61
2022/10/12 14:10:56;;;;;;;3.90;0.93;;;17.60;78.00;;;;;;5057358;28;20467;-59
2022/10/12 14:13:30;;;;;;;2.07;1.40;;;17.60;78.50;;;;;;5056849;28;20437;-61
2022/10/12 14:16:00;;;;;;;2.13;1.47;;;17.70;78.30;;;;;;5056503;28;20502;-62
2022/10/12 14:18:42;;;;;;;1.50;1.07;;;17.70;77.90;;;;;;5056371;28;20506;-60
2022/10/12 14:21:22;;;;;;;3.03;1.07;;;17.90;77.40;;;;;;5056919;28;20472;-62
2022/10/12 14:23:55;;;;;;;2.40;1.30;;;17.80;77.70;;;;;;5055738;28;20445;-60
2022/10/12 14:26:31;;;;;;;5.57;1.70;;;17.70;77.90;;;;;;5055619;28;20423;-61
2022/10/12 14:29:20;;;;;;;3.80;1.40;;;17.60;79.00;;;;;;5055286;28;20416;-61
2022/10/12 14:31:55;;;;;;;4.13;1.40;;;17.50;79.60;;;;;;5055457;28;20440;-59
2022/10/12 14:34:36;;;;;;;2.03;1.40;;;17.40;79.90;;;;;;5055530;28;20515;-63
2022/10/12 14:37:05;;;;;;;5.70;2.10;;;17.40;81.20;;;;;;5055812;28;20495;-61
2022/10/12 14:39:32;;;;;;;3.50;1.57;;;17.40;81.40;;;;;;5066688;28;20442;-59
2022/10/12 14:42:03;;;;;;;1.53;1.27;;;17.40;81.60;;;;;;5064623;28;20504;-60
2022/10/12 14:44:41;;;;;;;3.93;1.90;;;17.30;81.40;;;;;;5063153;28;20507;-59
2022/10/12 14:47:17;;;;;;;4.90;1.57;;;17.30;81.10;;;;;;5066482;28;20443;-58
2022/10/12 14:49:46;;;;;;;4.90;1.47;;;17.20;82.20;;;;;;5062448;28;20540;-62
2022/10/12 14:52:20;;;;;;;4.97;1.60;;;17.10;82.30;;;;;;5064278;28;20428;-61
2022/10/12 14:54:51;;;;;;;4.90;2.40;;;17.00;81.80;;;;;;5064212;28;20455;-61
2022/10/12 14:57:23;;;;;;;4.33;1.40;;;17.00;83.20;;;;;;5072338;28;20487;-63
2022/10/12 14:59:50;;;;;;;5.10;1.90;;;17.00;83.50;;;;;;5056931;28;20466;-37
2022/10/12 15:02:19;;;;;;;4.03;2.20;;;17.00;84.50;;;;;;5057552;28;20486;-38
2022/10/12 15:04:46;;;;;;;6.03;2.37;;;17.00;84.00;;;;;;5056873;28;20437;-36
2022/10/12 15:07:18;;;;;;;3.40;1.80;;;16.90;85.80;;;;;;5057736;28;20472;-38
2022/10/12 15:09:46;;;;;;;2.70;1.50;;;16.80;84.50;;;;;;5057296;28;20864;-43
2022/10/12 15:12:19;;;;;;;10.43;1.80;;;16.70;84.40;;;;;;5056854;28;20515;-38
2022/10/12 15:14:49;;;;;;;4.40;2.10;;;16.60;85.00;;;;;;5057441;28;20444;-39
2022/10/12 15:17:18;;;;;;;3.33;1.30;;;16.60;86.00;;;;;;5056855;28;20490;-38
2022/10/12 15:19:47;;;;;;;4.07;2.20;;;16.50;86.80;;;;;;5057022;28;20459;-38
2022/10/12 15:22:17;;;;;;;10.80;2.70;;;16.50;88.10;;;;;;5056866;28;20455;-40
2022/10/12 15:24:46;;;;;;;2.60;1.70;;;16.40;89.40;;;;;;5056728;28;20470;-37
2022/10/12 15:27:17;;;;;;;4.90;2.10;;;16.40;90.40;;;;;;5056574;28;20484;-40
2022/10/12 15:29:47;;;;;;;8.47;1.97;;;16.30;91.00;;;;;;5056353;28;21201;-40
2022/10/12 15:32:15;;;;;;;2.47;1.77;;;16.20;91.20;;;;;;5056441;28;20444;-39
2022/10/12 15:34:46;;;;;;;2.80;1.80;;;16.20;91.60;;;;;;5056141;28;20437;-39
2022/10/12 15:37:12;;;;;;;4.23;1.80;;;16.20;91.90;;;;;;5056459;28;20452;-39
2022/10/12 15:39:41;;;;;;;3.90;1.57;;;16.20;92.50;;;;;;5061048;28;20491;-38
2022/10/12 15:42:12;;;;;;;5.70;2.50;;;16.10;92.90;;;;;;5061436;28;20515;-38
2022/10/12 15:44:40;;;;;;;5.50;2.17;;;16.10;94.00;;;;;;5061314;28;20451;-39
2022/10/12 15:47:10;;;;;;;5.10;1.70;;;16.20;94.50;;;;;;5060852;28;20452;-38
2022/10/12 15:49:37;;;;;;;7.03;2.00;;;16.00;95.10;;;;;;5061278;28;20467;-37
2022/10/12 15:52:06;;;;;;;7.13;2.00;;;16.00;95.60;;;;;;5060751;28;20444;-37
2022/10/12 15:54:32;;;;;;;4.70;2.10;;;15.90;95.60;;;;;;5062912;28;20435;-36
2022/10/12 15:57:01;;;;;;;5.90;2.67;;;15.90;95.90;;;;;;5062003;28;20420;-36
2022/10/12 15:59:29;;;;;;;4.60;2.40;;;15.80;96.40;;;;;;5060215;28;20475;-37
2022/10/12 16:01:56;;;;;;;6.80;2.30;;;15.80;96.70;;;;;;5060049;28;20468;-37
2022/10/12 16:04:26;;;;;;;2.80;2.17;;;15.70;97.20;;;;;;5060675;28;20465;-36
2022/10/12 16:06:53;;;;;;;3.93;2.40;;;15.60;98.40;;;;;;5060790;28;20467;-35
2022/10/12 16:09:26;;;;;;;3.50;2.13;;;15.60;98.60;;;;;;5060098;28;20467;-38
2022/10/12 16:11:53;;;;;;;3.17;2.47;;;15.50;99.40;;;;;;5060735;28;20464;-36
2022/10/12 16:14:19;;;;;;;6.80;3.07;;;15.40;99.90;;;;;;5060177;28;20436;-38
2022/10/12 16:16:46;;;;;;;4.90;1.87;;;15.40;99.90;;;;;;5060069;28;20510;-38
2022/10/12 16:19:13;;;;;;;5.30;2.60;;;15.40;99.90;;;;;;5060245;28;20546;-37
2022/10/12 16:21:41;;;;;;;6.27;2.20;;;15.30;99.90;;;;;;5072196;28;20574;-38
2022/10/12 16:24:08;;;;;;;4.37;2.30;;;15.30;99.90;;;;;;5077869;28;20456;-39
2022/10/12 16:26:35;;;;;;;7.90;2.50;;;15.20;99.90;;;;;;5071149;28;20458;-38
2022/10/12 16:29:04;;;;;;;7.57;2.80;;;15.10;99.90;;;;;;5070696;28;20439;-35
2022/10/12 16:31:34;;;;;;;6.27;3.00;;;15.10;99.90;;;;;;5070556;28;20467;-37
2022/10/12 16:34:05;;;;;;;5.33;2.97;;;15.00;99.90;;;;;;5057662;28;20528;-38
2022/10/12 16:36:32;;;;;;;7.00;2.90;;;14.90;99.90;;;;;;5060068;28;20424;-37
2022/10/12 16:39:00;;;;;;;4.93;2.30;;;14.80;99.90;;;;;;5060041;28;20564;-37
2022/10/12 16:41:27;;;;;;;5.50;3.10;;;14.70;99.90;;;;;;5060172;28;20486;-39
2022/10/12 16:43:54;;;;;;;8.77;2.83;;;14.70;99.90;;;;;;5059911;28;20627;-38
2022/10/12 16:46:21;;;;;;;4.57;2.30;;;14.60;99.90;;;;;;5059853;28;20447;-39
2022/10/12 16:48:50;;;;;;;4.50;2.97;;;14.60;99.90;;;;;;5059512;28;20467;-38
2022/10/12 16:51:17;;;;;;;7.30;4.10;;;14.50;99.90;;;;;;5059695;28;20456;-37
2022/10/12 16:53:46;;;;;;;9.23;3.53;;;14.50;99.90;;;;;;5067941;28;20498;-36
2022/10/12 16:56:14;;;;;;;8.37;3.90;;;14.50;99.90;;;;;;5079929;28;20487;-38
2022/10/12 16:58:40;;;;;;;5.50;2.83;;;14.40;99.90;;;;;;5061126;28;20483;-38
2022/10/12 17:01:09;;;;;;;7.53;3.20;;;14.40;99.90;;;;;;5059743;28;20450;-37
2022/10/12 17:03:35;;;;;;;7.47;4.13;;;14.40;99.90;;;;;;5059150;28;20460;-39
2022/10/12 17:06:05;;;;;;;8.07;3.50;;;14.30;99.90;;;;;;5059630;28;20479;-39
2022/10/12 17:08:37;;;;;;;10.43;3.93;;;14.30;99.90;;;;;;5059484;28;20480;-38
2022/10/12 17:11:06;;;;;;;6.33;3.60;;;14.20;99.90;;;;;;5059791;28;20459;-38
2022/10/12 17:13:38;;;;;;;7.80;4.23;;;14.20;99.90;;;;;;5059336;28;20486;-39
2022/10/12 17:16:48;;;;;;;7.77;2.70;;;14.20;99.90;;;;;;5059432;28;20516;-38
2022/10/12 17:19:00;;;;;;;9.00;3.33;;;14.20;99.90;;;;;;5058849;28;20464;-39
2022/10/12 17:21:27;;;;;;;9.93;3.30;;;14.20;99.90;;;;;;5059665;28;20496;-38
2022/10/12 17:23:56;;;;;;;5.40;3.50;;;14.10;99.90;;;;;;5059600;28;20520;-38